createdAt,value
2023-10-09T00:00:19.383Z,16.34
2023-10-09T00:02:46.068Z,16.34
2023-10-09T00:05:24.508Z,16.05
2023-10-09T00:07:57.131Z,16.30
2023-10-09T00:10:25.345Z,16.28
2023-10-09T00:12:52.038Z,16.28
2023-10-09T00:15:19.224Z,16.23
2023-10-09T00:17:48.837Z,16.26
2023-10-09T00:20:31.504Z,16.24
2023-10-09T00:22:59.273Z,16.22
2023-10-09T00:25:31.549Z,15.74
2023-10-09T00:28:00.878Z,16.09
2023-10-09T00:30:31.441Z,16.17
2023-10-09T00:33:08.584Z,16.16
2023-10-09T00:35:55.337Z,16.14
2023-10-09T00:38:22.230Z,16.12
2023-10-09T00:40:57.520Z,16.11
2023-10-09T00:43:31.083Z,16.10
2023-10-09T00:46:13.326Z,16.05
2023-10-09T00:48:41.924Z,16.07
2023-10-09T00:51:27.325Z,16.06
2023-10-09T00:54:08.485Z,15.47
2023-10-09T00:56:45.138Z,16.01
2023-10-09T00:59:17.362Z,15.82
2023-10-09T01:02:05.488Z,15.99
2023-10-09T01:04:38.254Z,15.95
2023-10-09T01:07:16.943Z,15.93
2023-10-09T01:09:52.366Z,15.85
2023-10-09T01:12:19.257Z,15.90
2023-10-09T01:14:47.353Z,15.87
2023-10-09T01:17:23.707Z,15.86
2023-10-09T01:19:56.310Z,15.46
2023-10-09T01:22:23.242Z,15.83
2023-10-09T01:24:56.569Z,15.81
2023-10-09T01:27:27.022Z,15.75
2023-10-09T01:29:58.250Z,15.78
2023-10-09T01:32:28.017Z,15.76
2023-10-09T01:34:55.449Z,15.76
2023-10-09T01:37:40.508Z,15.75
2023-10-09T01:40:26.437Z,15.73
2023-10-09T01:42:53.434Z,15.70
2023-10-09T01:45:22.461Z,15.56
2023-10-09T01:47:56.210Z,15.63
2023-10-09T01:50:26.101Z,15.51
2023-10-09T01:52:52.961Z,15.66
2023-10-09T01:55:36.259Z,15.65
2023-10-09T01:58:07.346Z,15.63
2023-10-09T02:00:36.956Z,15.58
2023-10-09T02:03:07.145Z,15.60
2023-10-09T02:05:37.084Z,15.59
2023-10-09T02:08:05.279Z,15.59
2023-10-09T02:10:34.231Z,15.58
2023-10-09T02:13:11.215Z,15.56
2023-10-09T02:15:42.861Z,15.43
2023-10-09T02:18:38.473Z,15.16
2023-10-09T02:21:08.115Z,15.51
2023-10-09T02:23:45.528Z,15.50
2023-10-09T02:26:47.564Z,15.49
2023-10-09T02:29:14.144Z,15.41
2023-10-09T02:31:52.925Z,15.45
2023-10-09T02:34:23.472Z,15.43
2023-10-09T02:36:51.009Z,15.42
2023-10-09T02:39:27.763Z,15.42
2023-10-09T02:42:24.603Z,15.34
2023-10-09T02:44:54.514Z,15.38
2023-10-09T02:47:25.494Z,15.34
2023-10-09T02:50:01.688Z,14.98
2023-10-09T02:52:35.440Z,15.32
2023-10-09T02:55:09.255Z,15.28
2023-10-09T02:57:38.731Z,14.94
2023-10-09T03:00:10.316Z,15.16
2023-10-09T03:02:41.450Z,15.18
2023-10-09T03:05:13.391Z,15.21
2023-10-09T03:07:40.756Z,15.18
2023-10-09T03:10:10.794Z,15.09
2023-10-09T03:12:40.478Z,15.07
2023-10-09T03:15:09.983Z,15.11
2023-10-09T03:17:36.926Z,15.08
2023-10-09T03:20:15.053Z,15.01
2023-10-09T03:22:45.973Z,14.99
2023-10-09T03:25:15.574Z,15.00
2023-10-09T03:27:48.797Z,14.97
2023-10-09T03:30:25.138Z,14.57
2023-10-09T03:32:53.428Z,14.94
2023-10-09T03:35:27.468Z,14.92
2023-10-09T03:37:58.393Z,14.88
2023-10-09T03:40:28.887Z,14.90
2023-10-09T03:43:02.438Z,14.84
2023-10-09T03:45:32.864Z,14.80
2023-10-09T03:48:22.263Z,14.81
2023-10-09T03:50:50.050Z,14.80
2023-10-09T03:53:17.408Z,14.13
2023-10-09T03:55:44.065Z,14.77
2023-10-09T03:58:13.599Z,14.75
2023-10-09T04:00:47.383Z,14.74
2023-10-09T04:03:15.692Z,14.72
2023-10-09T04:05:44.315Z,14.70
2023-10-09T04:08:22.271Z,14.68
2023-10-09T04:10:58.545Z,14.67
2023-10-09T04:13:33.964Z,14.64
2023-10-09T04:16:33.093Z,14.61
2023-10-09T04:19:00.691Z,14.56
2023-10-09T04:21:37.487Z,14.55
2023-10-09T04:24:30.368Z,14.40
2023-10-09T04:27:00.089Z,14.09
2023-10-09T04:29:29.397Z,14.53
2023-10-09T04:32:01.887Z,14.52
2023-10-09T04:34:28.996Z,14.50
2023-10-09T04:37:16.507Z,14.49
2023-10-09T04:39:49.008Z,13.90
2023-10-09T04:42:25.635Z,14.44
2023-10-09T04:45:21.218Z,14.36
2023-10-09T04:47:50.827Z,14.44
2023-10-09T04:50:32.956Z,14.35
2023-10-09T04:53:19.505Z,14.43
2023-10-09T04:55:55.328Z,14.42
2023-10-09T04:58:26.976Z,14.35
2023-10-09T05:00:59.536Z,14.40
2023-10-09T05:03:29.548Z,14.42
2023-10-09T05:06:00.254Z,13.78
2023-10-09T05:08:30.213Z,14.23
2023-10-09T05:11:00.703Z,14.36
2023-10-09T05:13:41.123Z,14.43
2023-10-09T05:16:41.666Z,14.38
2023-10-09T05:19:28.293Z,14.45
2023-10-09T05:21:59.488Z,14.45
2023-10-09T05:24:28.155Z,14.48
2023-10-09T05:26:54.888Z,14.36
2023-10-09T05:29:29.874Z,14.50
2023-10-09T05:32:14.644Z,14.53
2023-10-09T05:34:59.989Z,14.54
2023-10-09T05:37:35.759Z,14.56
2023-10-09T05:40:19.726Z,14.60
2023-10-09T05:42:58.992Z,14.61
2023-10-09T05:45:46.001Z,14.62
2023-10-09T05:48:18.679Z,14.57
2023-10-09T05:51:04.339Z,14.60
2023-10-09T05:53:45.908Z,14.62
2023-10-09T05:56:33.397Z,14.64
2023-10-09T05:59:23.379Z,14.70
2023-10-09T06:02:15.659Z,14.67
2023-10-09T06:04:55.993Z,14.71
2023-10-09T06:07:42.290Z,14.72
2023-10-09T06:10:29.350Z,14.77
2023-10-09T06:13:05.136Z,14.71
2023-10-09T06:15:47.083Z,14.42
2023-10-09T06:18:35.172Z,14.81
2023-10-09T06:21:20.556Z,14.84
2023-10-09T06:24:05.748Z,14.80
2023-10-09T06:26:34.339Z,14.85
2023-10-09T06:29:31.908Z,14.73
2023-10-09T06:31:59.091Z,14.79
2023-10-09T06:34:36.662Z,14.90
2023-10-09T06:37:07.949Z,14.84
2023-10-09T06:39:51.999Z,14.89
2023-10-09T06:42:41.950Z,14.97
2023-10-09T06:45:15.750Z,14.99
2023-10-09T06:47:57.378Z,14.99
2023-10-09T06:50:28.124Z,15.07
2023-10-09T06:52:58.716Z,15.12
2023-10-09T06:55:37.531Z,15.16
2023-10-09T06:58:11.201Z,15.21
2023-10-09T07:01:02.415Z,15.28
2023-10-09T07:03:35.319Z,15.25
2023-10-09T07:06:25.327Z,15.41
2023-10-09T07:09:17.290Z,15.42
2023-10-09T07:11:49.396Z,15.52
2023-10-09T07:14:34.182Z,15.61
2023-10-09T07:17:17.718Z,15.68
2023-10-09T07:19:47.306Z,15.75
2023-10-09T07:22:24.661Z,15.75
2023-10-09T07:25:13.463Z,15.90
2023-10-09T07:27:50.990Z,15.99
2023-10-09T07:30:33.247Z,16.07
2023-10-09T07:33:07.621Z,16.15
2023-10-09T07:35:43.642Z,16.27
2023-10-09T07:38:21.106Z,16.36
2023-10-09T07:41:18.008Z,16.45
2023-10-09T07:43:44.657Z,16.52
2023-10-09T07:46:34.908Z,16.31
2023-10-09T07:49:10.235Z,16.66
2023-10-09T07:51:44.955Z,16.73
2023-10-09T07:54:16.049Z,16.76
2023-10-09T07:56:47.719Z,16.85
2023-10-09T07:59:19.835Z,16.53
2023-10-09T08:01:53.860Z,16.76
2023-10-09T08:04:40.909Z,16.72
2023-10-09T08:08:02.083Z,16.82
2023-10-09T08:10:20.971Z,17.24
2023-10-09T08:12:51.041Z,17.34
2023-10-09T08:15:21.783Z,17.39
2023-10-09T08:18:00.618Z,17.53
2023-10-09T08:20:37.334Z,17.64
2023-10-09T08:23:06.289Z,17.65
2023-10-09T08:25:51.774Z,17.78
2023-10-09T08:28:18.428Z,17.94
2023-10-09T08:30:57.168Z,17.62
2023-10-09T08:36:03.306Z,17.52
2023-10-09T08:38:34.517Z,18.28
2023-10-09T08:41:18.886Z,18.35
2023-10-09T08:43:53.595Z,18.37
2023-10-09T08:46:30.415Z,18.47
2023-10-09T08:48:59.511Z,18.41
2023-10-09T08:51:27.797Z,18.62
2023-10-09T08:53:55.256Z,18.65
2023-10-09T08:56:25.717Z,18.78
2023-10-09T08:58:53.160Z,18.87
2023-10-09T09:01:22.840Z,18.88
2023-10-09T09:03:53.081Z,19.10
2023-10-09T09:06:20.473Z,19.20
2023-10-09T09:08:56.180Z,19.15
2023-10-09T09:11:26.419Z,19.15
2023-10-09T09:14:07.257Z,19.02
2023-10-09T09:16:37.903Z,19.44
2023-10-09T09:19:11.551Z,19.51
2023-10-09T09:22:00.322Z,19.59
2023-10-09T09:24:27.052Z,19.70
2023-10-09T09:27:01.943Z,19.83
2023-10-09T09:29:40.708Z,20.00
2023-10-09T09:32:21.955Z,20.14
2023-10-09T09:34:51.366Z,20.34
2023-10-09T09:37:21.966Z,20.51
2023-10-09T09:39:56.084Z,20.59
2023-10-09T09:42:28.049Z,20.80
2023-10-09T09:44:57.218Z,20.61
2023-10-09T09:47:28.660Z,20.90
2023-10-09T09:50:06.395Z,21.23
2023-10-09T09:52:42.144Z,21.24
2023-10-09T09:55:23.712Z,21.30
2023-10-09T09:57:53.808Z,21.35
2023-10-09T10:00:44.169Z,21.41
2023-10-09T10:03:20.853Z,21.47
2023-10-09T10:05:49.972Z,21.49
2023-10-09T10:08:32.334Z,21.54
2023-10-09T10:11:06.022Z,21.64
2023-10-09T10:13:42.302Z,21.74
2023-10-09T10:16:19.322Z,21.88
2023-10-09T10:19:22.977Z,22.03
2023-10-09T10:21:51.177Z,22.11
2023-10-09T10:24:30.021Z,22.18
2023-10-09T10:27:19.312Z,22.25
2023-10-09T10:29:51.488Z,22.23
2023-10-09T10:32:21.878Z,22.31
2023-10-09T10:35:07.984Z,22.40
2023-10-09T10:37:39.290Z,22.45
2023-10-09T10:40:16.685Z,22.49
2023-10-09T10:43:10.544Z,22.55
2023-10-09T10:45:39.620Z,22.66
2023-10-09T10:48:11.053Z,22.77
2023-10-09T10:50:38.936Z,22.90
2023-10-09T10:53:23.842Z,23.02
2023-10-09T10:56:29.456Z,23.13
2023-10-09T10:59:05.656Z,23.35
2023-10-09T11:01:51.770Z,23.12
2023-10-09T11:04:31.549Z,23.72
2023-10-09T11:07:10.398Z,23.76
2023-10-09T11:10:01.044Z,23.80
2023-10-09T11:12:39.504Z,23.81
2023-10-09T11:15:19.891Z,23.84
2023-10-09T11:18:06.408Z,23.77
2023-10-09T11:20:35.965Z,23.76
2023-10-09T11:23:12.041Z,23.83
2023-10-09T11:25:51.402Z,23.90
2023-10-09T11:28:32.557Z,23.92
2023-10-09T11:31:12.804Z,23.91
2023-10-09T11:33:50.142Z,23.89
2023-10-09T11:36:17.633Z,24.13
2023-10-09T11:38:53.264Z,24.18
2023-10-09T11:41:23.847Z,23.65
2023-10-09T11:43:55.944Z,24.02
2023-10-09T11:46:49.823Z,24.05
2023-10-09T11:49:16.906Z,23.95
2023-10-09T11:52:03.759Z,23.80
2023-10-09T11:54:32.765Z,23.81
2023-10-09T11:57:02.202Z,23.72
2023-10-09T11:59:39.161Z,23.67
2023-10-09T12:02:18.149Z,23.68
2023-10-09T12:04:47.090Z,23.80
2023-10-09T12:07:14.282Z,23.91
2023-10-09T12:09:41.298Z,23.97
2023-10-09T12:12:12.402Z,24.10
2023-10-09T12:14:39.132Z,24.17
2023-10-09T12:17:07.088Z,24.18
2023-10-09T12:19:40.111Z,24.29
2023-10-09T12:22:12.196Z,24.19
2023-10-09T12:24:44.547Z,24.39
2023-10-09T12:27:13.522Z,24.37
2023-10-09T12:29:46.095Z,24.40
2023-10-09T12:32:15.269Z,24.38
2023-10-09T12:34:43.679Z,24.16
2023-10-09T12:37:10.419Z,24.32
2023-10-09T12:39:41.627Z,24.01
2023-10-09T12:42:09.767Z,24.18
2023-10-09T12:44:40.419Z,24.13
2023-10-09T12:47:08.230Z,24.08
2023-10-09T12:49:35.030Z,24.06
2023-10-09T12:52:01.790Z,24.01
2023-10-09T12:54:28.865Z,23.84
2023-10-09T12:56:56.557Z,23.57
2023-10-09T12:59:25.398Z,23.80
2023-10-09T13:01:59.177Z,23.68
2023-10-09T13:04:33.228Z,23.60
2023-10-09T13:07:05.550Z,23.55
2023-10-09T13:09:44.467Z,23.45
2023-10-09T13:12:19.593Z,23.41
2023-10-09T13:14:51.068Z,23.31
2023-10-09T13:17:18.160Z,23.28
2023-10-09T13:19:45.428Z,23.24
2023-10-09T13:22:14.901Z,23.19
2023-10-09T13:24:42.848Z,23.15
2023-10-09T13:27:11.139Z,23.09
2023-10-09T13:29:41.508Z,23.02
2023-10-09T13:32:14.942Z,22.73
2023-10-09T13:34:50.159Z,23.03
2023-10-09T13:37:23.470Z,23.01
2023-10-09T13:39:57.139Z,22.99
2023-10-09T13:42:27.144Z,22.59
2023-10-09T13:44:57.367Z,22.94
2023-10-09T13:47:30.623Z,22.88
2023-10-09T13:49:58.803Z,22.73
2023-10-09T13:52:25.706Z,22.81
2023-10-09T13:54:52.487Z,22.89
2023-10-09T13:57:23.767Z,22.89
2023-10-09T13:59:50.796Z,22.62
2023-10-09T14:02:22.635Z,22.75
2023-10-09T14:04:49.669Z,22.87
2023-10-09T14:07:21.944Z,22.87
2023-10-09T14:10:08.686Z,22.98
2023-10-09T14:12:41.059Z,23.00
2023-10-09T14:15:12.381Z,22.96
2023-10-09T14:17:44.367Z,22.75
2023-10-09T14:20:30.092Z,22.70
2023-10-09T14:22:57.291Z,22.77
2023-10-09T14:25:31.213Z,23.02
2023-10-09T14:27:59.523Z,23.01
2023-10-09T14:30:43.046Z,22.48
2023-10-09T14:33:24.091Z,22.98
2023-10-09T14:35:54.118Z,22.98
2023-10-09T14:38:27.960Z,22.96
2023-10-09T14:41:01.255Z,22.40
2023-10-09T14:43:34.990Z,22.23
2023-10-09T14:46:02.225Z,22.77
2023-10-09T14:48:30.334Z,22.86
2023-10-09T14:51:05.947Z,22.47
2023-10-09T14:53:35.691Z,22.11
2023-10-09T14:56:04.664Z,22.67
2023-10-09T14:58:34.039Z,22.70
2023-10-09T15:01:12.220Z,22.44
2023-10-09T15:03:41.612Z,22.75
2023-10-09T15:06:11.744Z,22.78
2023-10-09T15:08:39.248Z,22.42
2023-10-09T15:11:08.582Z,22.78
2023-10-09T15:13:40.752Z,22.32
2023-10-09T15:16:07.869Z,22.74
2023-10-09T15:18:35.043Z,22.67
2023-10-09T15:21:02.062Z,22.78
2023-10-09T15:23:28.818Z,22.73
2023-10-09T15:25:57.947Z,22.69
2023-10-09T15:28:25.031Z,22.62
2023-10-09T15:30:51.933Z,22.64
2023-10-09T15:33:20.050Z,22.63
2023-10-09T15:35:53.774Z,22.60
2023-10-09T15:38:23.151Z,22.57
2023-10-09T15:40:55.405Z,22.54
2023-10-09T15:43:26.368Z,22.52
2023-10-09T15:45:53.135Z,22.51
2023-10-09T15:48:23.029Z,22.46
2023-10-09T15:50:50.144Z,22.44
2023-10-09T15:53:19.410Z,22.31
2023-10-09T15:55:53.265Z,22.39
2023-10-09T15:58:20.150Z,22.35
2023-10-09T16:00:46.984Z,22.27
2023-10-09T16:03:15.278Z,22.22
2023-10-09T16:05:42.292Z,22.23
2023-10-09T16:08:09.562Z,22.18
2023-10-09T16:10:37.236Z,22.08
2023-10-09T16:13:05.439Z,22.06
2023-10-09T16:15:33.708Z,21.95
2023-10-09T16:18:07.562Z,21.98
2023-10-09T16:20:34.523Z,21.75
2023-10-09T16:23:05.521Z,21.85
2023-10-09T16:25:35.306Z,21.79
2023-10-09T16:28:03.806Z,21.79
2023-10-09T16:30:30.817Z,21.75
2023-10-09T16:33:01.847Z,21.56
2023-10-09T16:35:28.788Z,21.32
2023-10-09T16:37:59.221Z,21.61
2023-10-09T16:40:27.734Z,21.22
2023-10-09T16:42:54.922Z,21.38
2023-10-09T16:45:21.971Z,21.46
2023-10-09T16:48:00.322Z,21.41
2023-10-09T16:50:29.564Z,21.34
2023-10-09T16:52:56.619Z,21.15
2023-10-09T16:55:25.903Z,21.06
2023-10-09T16:57:57.118Z,21.19
2023-10-09T17:00:30.123Z,20.76
2023-10-09T17:03:00.298Z,20.82
2023-10-09T17:05:37.315Z,21.06
2023-10-09T17:08:04.724Z,20.93
2023-10-09T17:10:36.336Z,20.94
2023-10-09T17:13:08.240Z,20.89
2023-10-09T17:15:38.469Z,20.84
2023-10-09T17:18:08.036Z,20.70
2023-10-09T17:20:41.959Z,20.68
2023-10-09T17:23:13.442Z,20.58
2023-10-09T17:25:45.787Z,20.59
2023-10-09T17:28:21.026Z,20.51
2023-10-09T17:30:51.068Z,20.45
2023-10-09T17:33:20.806Z,20.12
2023-10-09T17:35:50.922Z,20.33
2023-10-09T17:38:19.779Z,20.21
2023-10-09T17:40:52.849Z,20.21
2023-10-09T17:43:23.177Z,20.03
2023-10-09T17:45:54.017Z,19.83
2023-10-09T17:48:26.598Z,19.99
2023-10-09T17:50:57.607Z,19.70
2023-10-09T17:53:24.362Z,19.98
2023-10-09T17:55:57.314Z,19.47
2023-10-09T17:58:27.620Z,19.88
2023-10-09T18:00:59.860Z,19.83
2023-10-09T18:03:31.283Z,19.78
2023-10-09T18:06:01.094Z,19.71
2023-10-09T18:08:30.293Z,19.68
2023-10-09T18:11:07.124Z,19.54
2023-10-09T18:13:37.017Z,19.58
2023-10-09T18:16:13.383Z,19.13
2023-10-09T18:18:41.284Z,19.37
2023-10-09T18:21:11.475Z,19.42
2023-10-09T18:23:45.753Z,19.37
2023-10-09T18:26:16.604Z,19.26
2023-10-09T18:28:46.157Z,19.26
2023-10-09T18:31:19.746Z,19.15
2023-10-09T18:33:54.168Z,19.17
2023-10-09T18:36:23.970Z,19.12
2023-10-09T18:38:53.493Z,19.08
2023-10-09T18:41:20.623Z,18.93
2023-10-09T18:43:49.455Z,18.86
2023-10-09T18:46:16.778Z,18.95
2023-10-09T18:48:46.896Z,18.86
2023-10-09T18:51:15.777Z,18.85
2023-10-09T18:53:42.955Z,18.82
2023-10-09T18:56:15.907Z,18.77
2023-10-09T18:58:43.892Z,18.67
2023-10-09T19:01:19.686Z,18.61
2023-10-09T19:03:51.610Z,18.66
2023-10-09T19:06:19.556Z,18.17
2023-10-09T19:08:49.356Z,18.57
2023-10-09T19:11:22.327Z,18.55
2023-10-09T19:13:49.379Z,18.32
2023-10-09T19:16:18.471Z,18.47
2023-10-09T19:18:46.126Z,18.26
2023-10-09T19:21:19.904Z,18.27
2023-10-09T19:23:48.878Z,18.31
2023-10-09T19:26:16.196Z,18.18
2023-10-09T19:28:49.618Z,18.28
2023-10-09T19:31:21.551Z,17.95
2023-10-09T19:33:49.267Z,18.27
2023-10-09T19:36:16.025Z,18.23
2023-10-09T19:38:55.086Z,18.21
2023-10-09T19:41:24.424Z,17.80
2023-10-09T19:43:57.563Z,17.69
2023-10-09T19:46:29.585Z,18.02
2023-10-09T19:48:58.999Z,17.88
2023-10-09T19:51:25.718Z,18.10
2023-10-09T19:53:53.978Z,18.08
2023-10-09T19:56:23.520Z,17.99
2023-10-09T19:58:55.879Z,18.04
2023-10-09T20:01:27.352Z,18.03
2023-10-09T20:03:54.303Z,17.87
2023-10-09T20:06:21.067Z,17.98
2023-10-09T20:08:49.113Z,17.98
2023-10-09T20:11:16.209Z,17.96
2023-10-09T20:13:44.487Z,17.96
2023-10-09T20:16:13.772Z,17.77
2023-10-09T20:18:47.185Z,17.94
2023-10-09T20:21:14.233Z,17.83
2023-10-09T20:23:44.671Z,17.93
2023-10-09T20:26:17.317Z,17.86
2023-10-09T20:28:44.966Z,17.53
2023-10-09T20:31:14.076Z,17.89
2023-10-09T20:33:43.395Z,17.48
2023-10-09T20:36:18.864Z,17.84
2023-10-09T20:38:50.200Z,17.76
2023-10-09T20:41:17.706Z,17.80
2023-10-09T20:43:47.006Z,17.37
2023-10-09T20:46:17.437Z,17.69
2023-10-09T20:48:47.778Z,17.73
2023-10-09T20:51:18.011Z,17.72
2023-10-09T20:53:45.378Z,17.70
2023-10-09T20:56:14.688Z,17.67
2023-10-09T20:58:44.780Z,17.67
2023-10-09T21:01:21.155Z,17.65
2023-10-09T21:03:52.459Z,17.62
2023-10-09T21:06:25.104Z,17.30
2023-10-09T21:08:52.099Z,17.47
2023-10-09T21:11:22.746Z,17.54
2023-10-09T21:13:49.689Z,17.51
2023-10-09T21:16:17.202Z,16.99
2023-10-09T21:18:48.381Z,17.45
2023-10-09T21:21:16.905Z,17.24
2023-10-09T21:23:46.674Z,17.28
2023-10-09T21:26:19.252Z,17.32
2023-10-09T21:28:47.880Z,16.96
2023-10-09T21:31:20.493Z,17.32
2023-10-09T21:33:53.546Z,17.29
2023-10-09T21:36:20.979Z,17.16
2023-10-09T21:38:48.287Z,17.24
2023-10-09T21:41:22.774Z,17.16
2023-10-09T21:43:54.883Z,17.19
2023-10-09T21:46:26.496Z,17.17
2023-10-09T21:48:55.968Z,17.14
2023-10-09T21:51:24.929Z,17.12
2023-10-09T21:53:51.811Z,17.00
2023-10-09T21:56:21.317Z,17.08
2023-10-09T21:58:48.374Z,16.90
2023-10-09T22:01:20.664Z,16.84
2023-10-09T22:03:49.991Z,17.02
2023-10-09T22:06:16.866Z,16.89
2023-10-09T22:08:46.049Z,16.93
2023-10-09T22:11:13.030Z,17.01
2023-10-09T22:13:40.127Z,17.00
2023-10-09T22:16:09.610Z,17.00
2023-10-09T22:18:41.576Z,17.01
2023-10-09T22:21:12.213Z,16.93
2023-10-09T22:23:46.848Z,16.94
2023-10-09T22:26:21.393Z,17.03
2023-10-09T22:28:48.285Z,16.99
2023-10-09T22:31:17.070Z,17.02
2023-10-09T22:33:50.680Z,17.02
2023-10-09T22:36:42.255Z,17.00
2023-10-09T22:39:34.036Z,16.82
2023-10-09T22:42:04.758Z,16.87
2023-10-09T22:44:39.313Z,16.90
2023-10-09T22:47:11.266Z,16.87
2023-10-09T22:49:38.775Z,16.82
2023-10-09T22:52:16.025Z,16.84
2023-10-09T22:54:50.256Z,16.83
2023-10-09T22:57:17.900Z,16.82
2023-10-09T22:59:51.562Z,16.71
2023-10-09T23:02:44.416Z,16.81
2023-10-09T23:05:14.202Z,16.28
2023-10-09T23:07:42.913Z,16.71
2023-10-09T23:10:16.399Z,16.49
2023-10-09T23:12:50.042Z,16.63
2023-10-09T23:15:36.751Z,16.75
2023-10-09T23:18:22.165Z,16.73
2023-10-09T23:21:11.241Z,16.72
2023-10-09T23:23:42.493Z,16.69
2023-10-09T23:26:11.185Z,16.67
2023-10-09T23:28:39.255Z,16.55
2023-10-09T23:31:24.953Z,16.62
2023-10-09T23:33:58.266Z,16.58
2023-10-09T23:36:31.145Z,16.53
2023-10-09T23:39:11.217Z,16.40
2023-10-09T23:41:38.893Z,16.23
2023-10-09T23:44:08.788Z,16.47
2023-10-09T23:46:39.735Z,15.94
2023-10-09T23:49:08.875Z,16.38
2023-10-09T23:51:40.307Z,16.36
2023-10-09T23:54:13.047Z,16.31
2023-10-09T23:57:00.975Z,16.27
2023-10-09T23:59:51.613Z,16.24
